sensor_id;sensor_type;location;lat;lon;timestamp;P1;durP1;ratioP1;P2;durP2;ratioP2
61756;SDS011;57225;61.460;24.060;2024-01-27T00:02:18;14.30;;;6.15;;
61756;SDS011;57225;61.460;24.060;2024-01-27T00:05:03;10.80;;;5.32;;
61756;SDS011;57225;61.460;24.060;2024-01-27T00:07:47;16.52;;;5.57;;
61756;SDS011;57225;61.460;24.060;2024-01-27T00:10:32;10.93;;;4.63;;
61756;SDS011;57225;61.460;24.060;2024-01-27T00:13:16;11.15;;;4.30;;
61756;SDS011;57225;61.460;24.060;2024-01-27T00:16:00;9.98;;;4.68;;
61756;SDS011;57225;61.460;24.060;2024-01-27T00:18:45;10.23;;;4.32;;
61756;SDS011;57225;61.460;24.060;2024-01-27T00:21:29;11.63;;;4.13;;
61756;SDS011;57225;61.460;24.060;2024-01-27T00:24:14;16.15;;;5.03;;
61756;SDS011;57225;61.460;24.060;2024-01-27T00:26:59;12.00;;;4.63;;
61756;SDS011;57225;61.460;24.060;2024-01-27T00:29:44;18.38;;;4.72;;
61756;SDS011;57225;61.460;24.060;2024-01-27T00:32:28;9.13;;;4.40;;
61756;SDS011;57225;61.460;24.060;2024-01-27T00:35:13;15.93;;;4.65;;
61756;SDS011;57225;61.460;24.060;2024-01-27T00:38:00;11.77;;;4.13;;
61756;SDS011;57225;61.460;24.060;2024-01-27T00:40:45;9.77;;;4.43;;
61756;SDS011;57225;61.460;24.060;2024-01-27T00:43:29;12.27;;;4.32;;
61756;SDS011;57225;61.460;24.060;2024-01-27T00:46:13;11.18;;;4.63;;
61756;SDS011;57225;61.460;24.060;2024-01-27T00:48:58;10.13;;;3.80;;
61756;SDS011;57225;61.460;24.060;2024-01-27T00:51:42;7.25;;;3.65;;
61756;SDS011;57225;61.460;24.060;2024-01-27T00:54:27;9.90;;;4.10;;
61756;SDS011;57225;61.460;24.060;2024-01-27T00:57:11;12.85;;;4.28;;
61756;SDS011;57225;61.460;24.060;2024-01-27T00:59:56;11.98;;;3.72;;
61756;SDS011;57225;61.460;24.060;2024-01-27T01:02:40;12.75;;;4.03;;
61756;SDS011;57225;61.460;24.060;2024-01-27T01:05:25;10.48;;;3.58;;
61756;SDS011;57225;61.460;24.060;2024-01-27T01:08:09;12.15;;;3.67;;
61756;SDS011;57225;61.460;24.060;2024-01-27T01:10:54;9.65;;;3.72;;
61756;SDS011;57225;61.460;24.060;2024-01-27T01:13:38;11.88;;;3.67;;
61756;SDS011;57225;61.460;24.060;2024-01-27T01:16:23;6.68;;;3.45;;
61756;SDS011;57225;61.460;24.060;2024-01-27T01:19:07;6.78;;;3.22;;
61756;SDS011;57225;61.460;24.060;2024-01-27T01:21:52;11.32;;;3.75;;
61756;SDS011;57225;61.460;24.060;2024-01-27T01:24:36;11.60;;;3.60;;
61756;SDS011;57225;61.460;24.060;2024-01-27T01:27:21;13.85;;;3.58;;
61756;SDS011;57225;61.460;24.060;2024-01-27T01:30:05;9.82;;;3.58;;
61756;SDS011;57225;61.460;24.060;2024-01-27T01:32:50;7.63;;;2.83;;
61756;SDS011;57225;61.460;24.060;2024-01-27T01:35:35;10.18;;;3.00;;
61756;SDS011;57225;61.460;24.060;2024-01-27T01:38:21;5.35;;;3.22;;
61756;SDS011;57225;61.460;24.060;2024-01-27T01:41:05;11.07;;;3.20;;
61756;SDS011;57225;61.460;24.060;2024-01-27T01:43:50;10.82;;;3.28;;
61756;SDS011;57225;61.460;24.060;2024-01-27T01:46:34;5.93;;;3.20;;
61756;SDS011;57225;61.460;24.060;2024-01-27T01:52:42;7.00;;;3.03;;
61756;SDS011;57225;61.460;24.060;2024-01-27T01:55:27;6.78;;;3.20;;
61756;SDS011;57225;61.460;24.060;2024-01-27T01:58:11;9.20;;;2.80;;
61756;SDS011;57225;61.460;24.060;2024-01-27T02:00:56;7.72;;;3.28;;
61756;SDS011;57225;61.460;24.060;2024-01-27T02:03:50;6.90;;;2.97;;
61756;SDS011;57225;61.460;24.060;2024-01-27T02:06:38;8.23;;;3.05;;
61756;SDS011;57225;61.460;24.060;2024-01-27T02:09:22;9.20;;;3.20;;
61756;SDS011;57225;61.460;24.060;2024-01-27T02:12:07;12.10;;;3.22;;
61756;SDS011;57225;61.460;24.060;2024-01-27T02:14:51;7.65;;;3.17;;
61756;SDS011;57225;61.460;24.060;2024-01-27T02:17:36;7.60;;;3.15;;
61756;SDS011;57225;61.460;24.060;2024-01-27T02:20:20;7.05;;;3.58;;
61756;SDS011;57225;61.460;24.060;2024-01-27T02:23:05;6.22;;;2.70;;
61756;SDS011;57225;61.460;24.060;2024-01-27T02:25:49;6.55;;;2.80;;
61756;SDS011;57225;61.460;24.060;2024-01-27T02:28:34;11.10;;;3.67;;
61756;SDS011;57225;61.460;24.060;2024-01-27T02:31:19;6.65;;;3.45;;
61756;SDS011;57225;61.460;24.060;2024-01-27T02:34:03;7.90;;;3.22;;
61756;SDS011;57225;61.460;24.060;2024-01-27T02:36:48;5.93;;;3.03;;
61756;SDS011;57225;61.460;24.060;2024-01-27T02:39:32;6.05;;;3.05;;
61756;SDS011;57225;61.460;24.060;2024-01-27T02:42:16;9.70;;;3.13;;
61756;SDS011;57225;61.460;24.060;2024-01-27T02:45:01;5.60;;;3.25;;
61756;SDS011;57225;61.460;24.060;2024-01-27T02:47:46;5.78;;;2.75;;
61756;SDS011;57225;61.460;24.060;2024-01-27T02:50:30;4.53;;;3.10;;
61756;SDS011;57225;61.460;24.060;2024-01-27T02:53:15;9.20;;;3.00;;
61756;SDS011;57225;61.460;24.060;2024-01-27T02:55:59;9.90;;;3.08;;
61756;SDS011;57225;61.460;24.060;2024-01-27T02:58:44;9.38;;;3.70;;
61756;SDS011;57225;61.460;24.060;2024-01-27T03:01:28;5.63;;;2.72;;
61756;SDS011;57225;61.460;24.060;2024-01-27T03:04:13;8.68;;;2.88;;
61756;SDS011;57225;61.460;24.060;2024-01-27T03:06:57;7.30;;;2.67;;
61756;SDS011;57225;61.460;24.060;2024-01-27T03:09:42;5.47;;;2.75;;
61756;SDS011;57225;61.460;24.060;2024-01-27T03:12:27;7.05;;;2.92;;
61756;SDS011;57225;61.460;24.060;2024-01-27T03:15:11;6.25;;;2.88;;
61756;SDS011;57225;61.460;24.060;2024-01-27T03:17:56;6.60;;;3.20;;
61756;SDS011;57225;61.460;24.060;2024-01-27T03:20:41;5.25;;;2.83;;
61756;SDS011;57225;61.460;24.060;2024-01-27T03:23:25;6.47;;;2.70;;
61756;SDS011;57225;61.460;24.060;2024-01-27T03:26:09;8.23;;;2.85;;
61756;SDS011;57225;61.460;24.060;2024-01-27T03:28:54;8.18;;;3.40;;
61756;SDS011;57225;61.460;24.060;2024-01-27T03:31:38;6.00;;;2.58;;
61756;SDS011;57225;61.460;24.060;2024-01-27T03:34:23;5.03;;;2.70;;
61756;SDS011;57225;61.460;24.060;2024-01-27T03:37:08;10.57;;;2.67;;
61756;SDS011;57225;61.460;24.060;2024-01-27T03:39:53;5.80;;;2.83;;
61756;SDS011;57225;61.460;24.060;2024-01-27T03:42:37;6.20;;;2.42;;
61756;SDS011;57225;61.460;24.060;2024-01-27T03:45:22;4.82;;;2.28;;
61756;SDS011;57225;61.460;24.060;2024-01-27T03:48:06;3.78;;;2.42;;
61756;SDS011;57225;61.460;24.060;2024-01-27T03:50:51;5.45;;;2.40;;
61756;SDS011;57225;61.460;24.060;2024-01-27T03:53:36;9.27;;;2.72;;
61756;SDS011;57225;61.460;24.060;2024-01-27T03:56:20;5.80;;;3.03;;
61756;SDS011;57225;61.460;24.060;2024-01-27T03:59:05;3.45;;;2.33;;
61756;SDS011;57225;61.460;24.060;2024-01-27T04:01:50;8.52;;;2.70;;
61756;SDS011;57225;61.460;24.060;2024-01-27T04:04:34;7.75;;;2.78;;
61756;SDS011;57225;61.460;24.060;2024-01-27T04:07:19;8.07;;;3.17;;
61756;SDS011;57225;61.460;24.060;2024-01-27T04:10:03;5.22;;;2.83;;
61756;SDS011;57225;61.460;24.060;2024-01-27T04:12:48;9.77;;;2.75;;
61756;SDS011;57225;61.460;24.060;2024-01-27T04:15:33;8.88;;;3.10;;
61756;SDS011;57225;61.460;24.060;2024-01-27T04:21:06;5.68;;;2.88;;
61756;SDS011;57225;61.460;24.060;2024-01-27T04:23:50;9.40;;;2.88;;
61756;SDS011;57225;61.460;24.060;2024-01-27T04:26:35;7.28;;;2.80;;
61756;SDS011;57225;61.460;24.060;2024-01-27T04:29:19;6.70;;;3.08;;
61756;SDS011;57225;61.460;24.060;2024-01-27T04:32:04;7.93;;;2.50;;
61756;SDS011;57225;61.460;24.060;2024-01-27T04:34:48;6.05;;;2.78;;
61756;SDS011;57225;61.460;24.060;2024-01-27T04:37:33;8.45;;;3.25;;
61756;SDS011;57225;61.460;24.060;2024-01-27T04:40:17;7.30;;;2.92;;
61756;SDS011;57225;61.460;24.060;2024-01-27T04:43:02;7.15;;;3.20;;
61756;SDS011;57225;61.460;24.060;2024-01-27T04:45:49;6.93;;;3.47;;
61756;SDS011;57225;61.460;24.060;2024-01-27T04:48:34;6.70;;;2.65;;
61756;SDS011;57225;61.460;24.060;2024-01-27T04:51:18;6.03;;;2.95;;
61756;SDS011;57225;61.460;24.060;2024-01-27T04:54:03;7.50;;;2.92;;
61756;SDS011;57225;61.460;24.060;2024-01-27T04:56:47;9.18;;;2.85;;
61756;SDS011;57225;61.460;24.060;2024-01-27T04:59:32;9.63;;;3.10;;
61756;SDS011;57225;61.460;24.060;2024-01-27T05:02:17;5.18;;;2.78;;
61756;SDS011;57225;61.460;24.060;2024-01-27T05:05:02;10.40;;;2.75;;
61756;SDS011;57225;61.460;24.060;2024-01-27T05:07:47;7.30;;;2.80;;
61756;SDS011;57225;61.460;24.060;2024-01-27T05:10:32;10.00;;;3.00;;
61756;SDS011;57225;61.460;24.060;2024-01-27T05:13:16;5.90;;;2.60;;
61756;SDS011;57225;61.460;24.060;2024-01-27T05:16:01;9.90;;;3.17;;
61756;SDS011;57225;61.460;24.060;2024-01-27T05:18:45;9.73;;;2.83;;
61756;SDS011;57225;61.460;24.060;2024-01-27T05:21:30;5.88;;;3.05;;
61756;SDS011;57225;61.460;24.060;2024-01-27T05:24:14;7.93;;;2.70;;
61756;SDS011;57225;61.460;24.060;2024-01-27T05:26:59;13.02;;;2.80;;
61756;SDS011;57225;61.460;24.060;2024-01-27T05:29:43;8.20;;;3.15;;
61756;SDS011;57225;61.460;24.060;2024-01-27T05:32:28;9.98;;;2.60;;
61756;SDS011;57225;61.460;24.060;2024-01-27T05:35:12;6.82;;;2.80;;
61756;SDS011;57225;61.460;24.060;2024-01-27T05:37:57;7.00;;;2.60;;
61756;SDS011;57225;61.460;24.060;2024-01-27T05:40:41;8.90;;;2.90;;
61756;SDS011;57225;61.460;24.060;2024-01-27T05:43:26;9.23;;;2.72;;
61756;SDS011;57225;61.460;24.060;2024-01-27T05:46:12;9.43;;;2.70;;
61756;SDS011;57225;61.460;24.060;2024-01-27T05:48:57;14.60;;;3.08;;
61756;SDS011;57225;61.460;24.060;2024-01-27T05:51:46;9.88;;;2.90;;
61756;SDS011;57225;61.460;24.060;2024-01-27T05:54:31;9.27;;;2.60;;
61756;SDS011;57225;61.460;24.060;2024-01-27T05:57:15;7.45;;;2.78;;
61756;SDS011;57225;61.460;24.060;2024-01-27T05:59:59;10.18;;;2.72;;
61756;SDS011;57225;61.460;24.060;2024-01-27T06:02:44;6.07;;;2.28;;
61756;SDS011;57225;61.460;24.060;2024-01-27T06:05:28;8.70;;;2.70;;
61756;SDS011;57225;61.460;24.060;2024-01-27T06:08:13;6.88;;;3.22;;
61756;SDS011;57225;61.460;24.060;2024-01-27T06:10:58;37.05;;;15.05;;
61756;SDS011;57225;61.460;24.060;2024-01-27T06:13:43;23.13;;;10.52;;
61756;SDS011;57225;61.460;24.060;2024-01-27T06:16:29;8.90;;;3.38;;
61756;SDS011;57225;61.460;24.060;2024-01-27T06:19:14;9.60;;;3.58;;
61756;SDS011;57225;61.460;24.060;2024-01-27T06:21:58;5.68;;;3.00;;
61756;SDS011;57225;61.460;24.060;2024-01-27T06:24:43;6.47;;;3.38;;
61756;SDS011;57225;61.460;24.060;2024-01-27T06:27:27;9.77;;;3.47;;
61756;SDS011;57225;61.460;24.060;2024-01-27T06:30:12;7.90;;;2.55;;
61756;SDS011;57225;61.460;24.060;2024-01-27T06:32:58;6.38;;;2.78;;
61756;SDS011;57225;61.460;24.060;2024-01-27T06:35:43;9.68;;;3.20;;
61756;SDS011;57225;61.460;24.060;2024-01-27T06:38:27;6.43;;;2.60;;
61756;SDS011;57225;61.460;24.060;2024-01-27T06:41:15;6.70;;;2.70;;
61756;SDS011;57225;61.460;24.060;2024-01-27T06:44:00;13.02;;;3.30;;
61756;SDS011;57225;61.460;24.060;2024-01-27T06:46:44;8.35;;;2.58;;
61756;SDS011;57225;61.460;24.060;2024-01-27T06:49:36;7.68;;;3.10;;
61756;SDS011;57225;61.460;24.060;2024-01-27T06:52:29;14.88;;;2.90;;
61756;SDS011;57225;61.460;24.060;2024-01-27T06:55:14;6.45;;;2.50;;
61756;SDS011;57225;61.460;24.060;2024-01-27T06:57:58;12.40;;;3.08;;
61756;SDS011;57225;61.460;24.060;2024-01-27T07:00:42;6.10;;;3.00;;
61756;SDS011;57225;61.460;24.060;2024-01-27T07:03:30;11.85;;;3.00;;
61756;SDS011;57225;61.460;24.060;2024-01-27T07:06:15;6.07;;;2.72;;
61756;SDS011;57225;61.460;24.060;2024-01-27T07:09:00;10.13;;;2.70;;
61756;SDS011;57225;61.460;24.060;2024-01-27T07:11:45;8.43;;;3.28;;
61756;SDS011;57225;61.460;24.060;2024-01-27T07:14:29;7.28;;;2.50;;
61756;SDS011;57225;61.460;24.060;2024-01-27T07:17:14;5.43;;;2.70;;
61756;SDS011;57225;61.460;24.060;2024-01-27T07:19:59;7.28;;;2.85;;
61756;SDS011;57225;61.460;24.060;2024-01-27T07:22:44;5.97;;;2.80;;
61756;SDS011;57225;61.460;24.060;2024-01-27T07:25:29;5.85;;;2.75;;
61756;SDS011;57225;61.460;24.060;2024-01-27T07:28:13;6.25;;;2.80;;
61756;SDS011;57225;61.460;24.060;2024-01-27T07:30:59;8.13;;;2.58;;
61756;SDS011;57225;61.460;24.060;2024-01-27T07:33:44;5.75;;;2.80;;
61756;SDS011;57225;61.460;24.060;2024-01-27T07:36:29;14.27;;;2.78;;
61756;SDS011;57225;61.460;24.060;2024-01-27T07:39:16;6.72;;;2.60;;
61756;SDS011;57225;61.460;24.060;2024-01-27T07:42:00;7.80;;;3.10;;
61756;SDS011;57225;61.460;24.060;2024-01-27T07:44:45;7.47;;;3.10;;
61756;SDS011;57225;61.460;24.060;2024-01-27T07:47:29;9.15;;;3.00;;
61756;SDS011;57225;61.460;24.060;2024-01-27T07:50:14;5.70;;;2.80;;
61756;SDS011;57225;61.460;24.060;2024-01-27T07:52:58;5.97;;;2.63;;
61756;SDS011;57225;61.460;24.060;2024-01-27T07:55:43;5.75;;;2.30;;
61756;SDS011;57225;61.460;24.060;2024-01-27T07:58:27;8.80;;;2.63;;
61756;SDS011;57225;61.460;24.060;2024-01-27T08:01:15;7.35;;;2.60;;
61756;SDS011;57225;61.460;24.060;2024-01-27T08:04:00;5.75;;;3.08;;
61756;SDS011;57225;61.460;24.060;2024-01-27T08:06:48;7.50;;;2.72;;
61756;SDS011;57225;61.460;24.060;2024-01-27T08:09:34;7.28;;;2.90;;
61756;SDS011;57225;61.460;24.060;2024-01-27T08:12:18;7.78;;;3.28;;
61756;SDS011;57225;61.460;24.060;2024-01-27T08:15:03;10.10;;;2.78;;
61756;SDS011;57225;61.460;24.060;2024-01-27T08:17:48;11.20;;;3.17;;
61756;SDS011;57225;61.460;24.060;2024-01-27T08:20:32;6.97;;;2.80;;
61756;SDS011;57225;61.460;24.060;2024-01-27T08:23:17;9.98;;;2.78;;
61756;SDS011;57225;61.460;24.060;2024-01-27T08:26:01;8.88;;;3.17;;
61756;SDS011;57225;61.460;24.060;2024-01-27T08:28:46;8.20;;;2.83;;
61756;SDS011;57225;61.460;24.060;2024-01-27T08:31:31;4.95;;;2.65;;
61756;SDS011;57225;61.460;24.060;2024-01-27T08:34:15;5.60;;;2.28;;
61756;SDS011;57225;61.460;24.060;2024-01-27T08:37:00;8.95;;;3.45;;
61756;SDS011;57225;61.460;24.060;2024-01-27T08:39:45;7.95;;;2.92;;
61756;SDS011;57225;61.460;24.060;2024-01-27T08:42:30;8.07;;;3.10;;
61756;SDS011;57225;61.460;24.060;2024-01-27T08:45:14;4.18;;;2.03;;
61756;SDS011;57225;61.460;24.060;2024-01-27T08:47:59;5.68;;;2.33;;
61756;SDS011;57225;61.460;24.060;2024-01-27T08:50:43;6.85;;;2.20;;
61756;SDS011;57225;61.460;24.060;2024-01-27T08:53:28;6.80;;;2.60;;
61756;SDS011;57225;61.460;24.060;2024-01-27T08:56:13;6.25;;;2.80;;
61756;SDS011;57225;61.460;24.060;2024-01-27T08:58:57;5.85;;;2.33;;
61756;SDS011;57225;61.460;24.060;2024-01-27T09:01:41;5.55;;;2.50;;
61756;SDS011;57225;61.460;24.060;2024-01-27T09:04:26;4.68;;;2.40;;
61756;SDS011;57225;61.460;24.060;2024-01-27T09:07:11;7.90;;;2.40;;
61756;SDS011;57225;61.460;24.060;2024-01-27T09:09:55;6.57;;;2.47;;
61756;SDS011;57225;61.460;24.060;2024-01-27T09:12:40;9.02;;;2.78;;
61756;SDS011;57225;61.460;24.060;2024-01-27T09:15:25;7.53;;;2.75;;
61756;SDS011;57225;61.460;24.060;2024-01-27T09:18:09;9.40;;;2.92;;
61756;SDS011;57225;61.460;24.060;2024-01-27T09:20:54;6.50;;;2.70;;
61756;SDS011;57225;61.460;24.060;2024-01-27T09:23:40;8.75;;;3.10;;
61756;SDS011;57225;61.460;24.060;2024-01-27T09:26:25;5.63;;;2.50;;
61756;SDS011;57225;61.460;24.060;2024-01-27T09:29:10;6.32;;;3.00;;
61756;SDS011;57225;61.460;24.060;2024-01-27T09:31:54;6.65;;;2.90;;
61756;SDS011;57225;61.460;24.060;2024-01-27T09:34:39;6.32;;;3.00;;
61756;SDS011;57225;61.460;24.060;2024-01-27T09:37:23;8.68;;;2.83;;
61756;SDS011;57225;61.460;24.060;2024-01-27T09:40:08;5.57;;;2.70;;
61756;SDS011;57225;61.460;24.060;2024-01-27T09:42:53;7.40;;;2.67;;
61756;SDS011;57225;61.460;24.060;2024-01-27T09:45:42;4.65;;;2.78;;
61756;SDS011;57225;61.460;24.060;2024-01-27T09:48:29;7.22;;;2.85;;
61756;SDS011;57225;61.460;24.060;2024-01-27T09:51:13;6.32;;;3.03;;
61756;SDS011;57225;61.460;24.060;2024-01-27T09:53:58;7.28;;;2.90;;
61756;SDS011;57225;61.460;24.060;2024-01-27T09:56:43;8.40;;;2.95;;
61756;SDS011;57225;61.460;24.060;2024-01-27T09:59:29;8.40;;;3.45;;
61756;SDS011;57225;61.460;24.060;2024-01-27T10:02:17;7.13;;;3.35;;
61756;SDS011;57225;61.460;24.060;2024-01-27T10:05:03;8.15;;;3.40;;
61756;SDS011;57225;61.460;24.060;2024-01-27T10:07:49;9.02;;;3.65;;
61756;SDS011;57225;61.460;24.060;2024-01-27T10:10:35;11.15;;;3.60;;
61756;SDS011;57225;61.460;24.060;2024-01-27T10:13:19;11.55;;;4.32;;
61756;SDS011;57225;61.460;24.060;2024-01-27T10:16:10;6.70;;;3.38;;
61756;SDS011;57225;61.460;24.060;2024-01-27T10:18:59;8.38;;;4.00;;
61756;SDS011;57225;61.460;24.060;2024-01-27T10:21:45;7.55;;;3.53;;
61756;SDS011;57225;61.460;24.060;2024-01-27T10:24:33;5.30;;;3.47;;
61756;SDS011;57225;61.460;24.060;2024-01-27T10:30:03;9.00;;;3.90;;
61756;SDS011;57225;61.460;24.060;2024-01-27T10:32:56;10.20;;;3.80;;
61756;SDS011;57225;61.460;24.060;2024-01-27T10:35:41;11.90;;;3.63;;
61756;SDS011;57225;61.460;24.060;2024-01-27T10:38:36;8.65;;;3.40;;
61756;SDS011;57225;61.460;24.060;2024-01-27T10:41:22;9.88;;;3.97;;
61756;SDS011;57225;61.460;24.060;2024-01-27T10:44:08;7.63;;;3.40;;
61756;SDS011;57225;61.460;24.060;2024-01-27T10:46:56;8.13;;;3.22;;
61756;SDS011;57225;61.460;24.060;2024-01-27T10:49:45;7.45;;;3.42;;
61756;SDS011;57225;61.460;24.060;2024-01-27T10:52:44;7.65;;;4.03;;
61756;SDS011;57225;61.460;24.060;2024-01-27T10:55:31;15.55;;;4.00;;
61756;SDS011;57225;61.460;24.060;2024-01-27T10:58:23;8.68;;;3.80;;
61756;SDS011;57225;61.460;24.060;2024-01-27T11:01:12;12.80;;;3.92;;
61756;SDS011;57225;61.460;24.060;2024-01-27T11:03:57;12.82;;;3.60;;
61756;SDS011;57225;61.460;24.060;2024-01-27T11:06:43;9.10;;;3.83;;
61756;SDS011;57225;61.460;24.060;2024-01-27T11:09:28;10.55;;;3.88;;
61756;SDS011;57225;61.460;24.060;2024-01-27T11:12:14;9.10;;;3.85;;
61756;SDS011;57225;61.460;24.060;2024-01-27T11:14:59;9.85;;;3.90;;
61756;SDS011;57225;61.460;24.060;2024-01-27T11:17:44;8.35;;;3.70;;
61756;SDS011;57225;61.460;24.060;2024-01-27T11:20:31;7.35;;;3.80;;
61756;SDS011;57225;61.460;24.060;2024-01-27T11:23:16;7.00;;;3.67;;
61756;SDS011;57225;61.460;24.060;2024-01-27T11:26:07;8.98;;;3.60;;
61756;SDS011;57225;61.460;24.060;2024-01-27T11:28:52;7.85;;;3.97;;
61756;SDS011;57225;61.460;24.060;2024-01-27T11:31:39;10.95;;;3.85;;
61756;SDS011;57225;61.460;24.060;2024-01-27T11:34:24;8.00;;;3.83;;
61756;SDS011;57225;61.460;24.060;2024-01-27T11:37:15;7.60;;;3.78;;
61756;SDS011;57225;61.460;24.060;2024-01-27T11:40:04;8.15;;;4.18;;
61756;SDS011;57225;61.460;24.060;2024-01-27T11:42:54;10.32;;;4.10;;
61756;SDS011;57225;61.460;24.060;2024-01-27T11:45:39;8.85;;;4.10;;
61756;SDS011;57225;61.460;24.060;2024-01-27T11:48:24;8.60;;;4.18;;
61756;SDS011;57225;61.460;24.060;2024-01-27T11:51:12;10.95;;;4.07;;
61756;SDS011;57225;61.460;24.060;2024-01-27T11:53:56;8.75;;;4.00;;
61756;SDS011;57225;61.460;24.060;2024-01-27T11:56:41;8.27;;;4.45;;
61756;SDS011;57225;61.460;24.060;2024-01-27T11:59:26;12.30;;;3.95;;
61756;SDS011;57225;61.460;24.060;2024-01-27T12:02:10;10.93;;;4.28;;
61756;SDS011;57225;61.460;24.060;2024-01-27T12:04:55;6.95;;;4.00;;
61756;SDS011;57225;61.460;24.060;2024-01-27T12:07:39;11.75;;;4.25;;
61756;SDS011;57225;61.460;24.060;2024-01-27T12:10:23;6.32;;;3.50;;
61756;SDS011;57225;61.460;24.060;2024-01-27T12:13:08;11.52;;;4.32;;
61756;SDS011;57225;61.460;24.060;2024-01-27T12:15:52;10.10;;;3.60;;
61756;SDS011;57225;61.460;24.060;2024-01-27T12:18:37;10.00;;;3.90;;
61756;SDS011;57225;61.460;24.060;2024-01-27T12:21:21;10.10;;;4.20;;
61756;SDS011;57225;61.460;24.060;2024-01-27T12:24:06;11.32;;;4.32;;
61756;SDS011;57225;61.460;24.060;2024-01-27T12:27:03;10.18;;;3.80;;
61756;SDS011;57225;61.460;24.060;2024-01-27T12:29:49;10.18;;;4.10;;
61756;SDS011;57225;61.460;24.060;2024-01-27T12:32:33;11.30;;;4.20;;
61756;SDS011;57225;61.460;24.060;2024-01-27T12:35:18;8.63;;;3.65;;
61756;SDS011;57225;61.460;24.060;2024-01-27T12:38:02;11.90;;;4.60;;
61756;SDS011;57225;61.460;24.060;2024-01-27T12:40:48;9.45;;;4.65;;
61756;SDS011;57225;61.460;24.060;2024-01-27T12:43:33;15.85;;;4.90;;
61756;SDS011;57225;61.460;24.060;2024-01-27T12:46:17;9.55;;;4.72;;
61756;SDS011;57225;61.460;24.060;2024-01-27T12:49:02;9.70;;;4.63;;
61756;SDS011;57225;61.460;24.060;2024-01-27T12:51:46;10.38;;;5.57;;
61756;SDS011;57225;61.460;24.060;2024-01-27T12:54:32;11.40;;;5.68;;
61756;SDS011;57225;61.460;24.060;2024-01-27T12:57:17;9.32;;;4.82;;
61756;SDS011;57225;61.460;24.060;2024-01-27T13:00:03;9.55;;;5.35;;
61756;SDS011;57225;61.460;24.060;2024-01-27T13:02:53;9.55;;;5.05;;
61756;SDS011;57225;61.460;24.060;2024-01-27T13:05:38;10.77;;;5.30;;
61756;SDS011;57225;61.460;24.060;2024-01-27T13:08:23;14.43;;;5.22;;
61756;SDS011;57225;61.460;24.060;2024-01-27T13:11:08;11.05;;;5.53;;
61756;SDS011;57225;61.460;24.060;2024-01-27T13:13:52;9.20;;;5.40;;
61756;SDS011;57225;61.460;24.060;2024-01-27T13:16:37;12.05;;;5.43;;
61756;SDS011;57225;61.460;24.060;2024-01-27T13:19:21;10.73;;;5.47;;
61756;SDS011;57225;61.460;24.060;2024-01-27T13:22:05;10.43;;;4.68;;
61756;SDS011;57225;61.460;24.060;2024-01-27T13:24:50;11.30;;;5.47;;
61756;SDS011;57225;61.460;24.060;2024-01-27T13:27:35;9.45;;;5.43;;
61756;SDS011;57225;61.460;24.060;2024-01-27T13:30:19;13.27;;;5.53;;
61756;SDS011;57225;61.460;24.060;2024-01-27T13:33:04;11.65;;;5.32;;
61756;SDS011;57225;61.460;24.060;2024-01-27T13:35:49;11.48;;;5.38;;
61756;SDS011;57225;61.460;24.060;2024-01-27T13:38:33;13.80;;;5.70;;
61756;SDS011;57225;61.460;24.060;2024-01-27T13:41:19;11.52;;;4.90;;
61756;SDS011;57225;61.460;24.060;2024-01-27T13:44:03;13.93;;;5.10;;
61756;SDS011;57225;61.460;24.060;2024-01-27T13:46:49;12.95;;;5.28;;
61756;SDS011;57225;61.460;24.060;2024-01-27T13:49:53;10.60;;;5.30;;
61756;SDS011;57225;61.460;24.060;2024-01-27T13:52:37;11.65;;;5.60;;
61756;SDS011;57225;61.460;24.060;2024-01-27T13:55:21;14.00;;;6.07;;
61756;SDS011;57225;61.460;24.060;2024-01-27T13:58:06;13.45;;;5.80;;
61756;SDS011;57225;61.460;24.060;2024-01-27T14:00:50;13.55;;;5.93;;
61756;SDS011;57225;61.460;24.060;2024-01-27T14:03:34;12.68;;;6.10;;
61756;SDS011;57225;61.460;24.060;2024-01-27T14:06:20;12.05;;;6.10;;
61756;SDS011;57225;61.460;24.060;2024-01-27T14:09:05;14.85;;;6.18;;
61756;SDS011;57225;61.460;24.060;2024-01-27T14:11:50;13.20;;;6.22;;
61756;SDS011;57225;61.460;24.060;2024-01-27T14:14:35;12.50;;;6.28;;
61756;SDS011;57225;61.460;24.060;2024-01-27T14:17:22;16.73;;;6.28;;
61756;SDS011;57225;61.460;24.060;2024-01-27T14:20:07;13.70;;;6.60;;
61756;SDS011;57225;61.460;24.060;2024-01-27T14:22:53;11.93;;;5.57;;
61756;SDS011;57225;61.460;24.060;2024-01-27T14:25:37;11.52;;;5.55;;
61756;SDS011;57225;61.460;24.060;2024-01-27T14:28:22;16.10;;;5.78;;
61756;SDS011;57225;61.460;24.060;2024-01-27T14:31:06;14.07;;;6.47;;
61756;SDS011;57225;61.460;24.060;2024-01-27T14:33:50;11.63;;;5.80;;
61756;SDS011;57225;61.460;24.060;2024-01-27T14:36:35;15.70;;;5.68;;
61756;SDS011;57225;61.460;24.060;2024-01-27T14:39:19;16.55;;;6.95;;
61756;SDS011;57225;61.460;24.060;2024-01-27T14:42:04;15.73;;;7.47;;
61756;SDS011;57225;61.460;24.060;2024-01-27T14:44:51;15.45;;;6.68;;
61756;SDS011;57225;61.460;24.060;2024-01-27T14:47:39;17.92;;;7.97;;
61756;SDS011;57225;61.460;24.060;2024-01-27T14:50:24;13.85;;;6.93;;
61756;SDS011;57225;61.460;24.060;2024-01-27T14:53:08;14.18;;;6.88;;
61756;SDS011;57225;61.460;24.060;2024-01-27T14:55:52;15.68;;;7.53;;
61756;SDS011;57225;61.460;24.060;2024-01-27T14:58:38;17.65;;;7.20;;
61756;SDS011;57225;61.460;24.060;2024-01-27T15:01:23;16.42;;;6.55;;
61756;SDS011;57225;61.460;24.060;2024-01-27T15:04:07;11.13;;;6.50;;
61756;SDS011;57225;61.460;24.060;2024-01-27T15:06:52;13.38;;;5.78;;
61756;SDS011;57225;61.460;24.060;2024-01-27T15:09:37;16.35;;;6.30;;
61756;SDS011;57225;61.460;24.060;2024-01-27T15:12:22;14.25;;;6.60;;
61756;SDS011;57225;61.460;24.060;2024-01-27T15:15:07;14.40;;;5.75;;
61756;SDS011;57225;61.460;24.060;2024-01-27T15:17:52;16.08;;;6.25;;
61756;SDS011;57225;61.460;24.060;2024-01-27T15:20:44;12.13;;;5.85;;
61756;SDS011;57225;61.460;24.060;2024-01-27T15:23:28;14.00;;;6.38;;
61756;SDS011;57225;61.460;24.060;2024-01-27T15:26:14;17.77;;;7.53;;
61756;SDS011;57225;61.460;24.060;2024-01-27T15:28:58;18.02;;;7.80;;
61756;SDS011;57225;61.460;24.060;2024-01-27T15:31:43;14.82;;;6.78;;
61756;SDS011;57225;61.460;24.060;2024-01-27T15:34:27;14.77;;;6.80;;
61756;SDS011;57225;61.460;24.060;2024-01-27T15:37:11;11.95;;;6.60;;
61756;SDS011;57225;61.460;24.060;2024-01-27T15:39:56;12.70;;;5.75;;
61756;SDS011;57225;61.460;24.060;2024-01-27T15:42:40;10.00;;;5.65;;
61756;SDS011;57225;61.460;24.060;2024-01-27T15:45:25;12.32;;;5.72;;
61756;SDS011;57225;61.460;24.060;2024-01-27T15:48:10;14.43;;;6.22;;
61756;SDS011;57225;61.460;24.060;2024-01-27T15:50:56;13.68;;;5.28;;
61756;SDS011;57225;61.460;24.060;2024-01-27T15:53:40;11.45;;;5.90;;
61756;SDS011;57225;61.460;24.060;2024-01-27T15:56:25;12.05;;;5.63;;
61756;SDS011;57225;61.460;24.060;2024-01-27T15:59:09;12.43;;;5.82;;
61756;SDS011;57225;61.460;24.060;2024-01-27T16:01:54;14.90;;;5.72;;
61756;SDS011;57225;61.460;24.060;2024-01-27T16:04:38;11.93;;;6.20;;
61756;SDS011;57225;61.460;24.060;2024-01-27T16:07:23;17.80;;;6.30;;
61756;SDS011;57225;61.460;24.060;2024-01-27T16:10:07;16.60;;;7.22;;
61756;SDS011;57225;61.460;24.060;2024-01-27T16:12:52;14.63;;;6.90;;
61756;SDS011;57225;61.460;24.060;2024-01-27T16:15:36;11.05;;;6.07;;
61756;SDS011;57225;61.460;24.060;2024-01-27T16:18:21;14.65;;;6.15;;
61756;SDS011;57225;61.460;24.060;2024-01-27T16:21:06;13.02;;;6.38;;
61756;SDS011;57225;61.460;24.060;2024-01-27T16:23:50;14.82;;;6.18;;